Terminal Aerodrome Forecast
Issued by NWS Pittsburgh, PA

Current Version | Previous Version | Graphics & Text | Print | Product List | Glossary On
Versions: 1 2 3 4 5 6 7 8 9 10 11 12 13 14 15 16 17 18 19 20 21 22 23 24 25 26 27 28 29 30 31 32 33 34 35 36
000
FTUS41 KPBZ 160401 AAC
TAFPIT
TAF AMD
KPIT 160401Z 1604/1706 24012G22KT 5SM -RA OVC040
      TEMPO 1604/1607 2SM -RA OVC015
     FM160700 32012KT 5SM -RA OVC015
     FM161400 31011G20KT 4SM BR VCSH OVC008
     FM161600 31012G21KT P6SM VCSH OVC010
     FM162000 31013G23KT P6SM BKN050
     FM170200 33007KT P6SM SCT120=

USA.gov is the U.S. government's official web portal to all federal, state and local government web resources and services.